NXCC EGNF-EGNF
Flight info
| Callsign | NXCC |
|---|---|
| Flight time | 0h 3m |
| Altitude | 1000 |
| Route | LEFT CIRCUITS |
| Aircraft | C152/L-VGD/A |
Departure
| Time | 2026-04-19 13:20 |
|---|---|
| Airport | Netherthorpe Airfield (EGNF) |
Arrival
| Time | 2026-04-19 13:23 |
|---|---|
| Airport | Netherthorpe Airfield (EGNF) |
| Time | Latitude | Longitude | Altitude | Speed | Heading |
|---|---|---|---|---|---|
| 2026-04-19 13:18 | 53.31744 | -1.19425 | 227 ft | 0 kts | 319° |
| 2026-04-19 13:19 | 53.31760 | -1.19454 | 228 ft | 3 kts | 263° |
| 2026-04-19 13:19 | 53.31743 | -1.19491 | 230 ft | 19 kts | 232° |
| 2026-04-19 13:19 | 53.31567 | -1.19900 | 260 ft | 62 kts | 235° |
| 2026-04-19 13:19 | 53.31311 | -1.20470 | 487 ft | 62 kts | 238° |
| 2026-04-19 13:20 | 53.31005 | -1.21058 | 685 ft | 69 kts | 230° |
| 2026-04-19 13:20 | 53.30524 | -1.21231 | 915 ft | 83 kts | 153° |
| 2026-04-19 13:20 | 53.30192 | -1.20417 | 990 ft | 91 kts | 92° |
| 2026-04-19 13:20 | 53.30279 | -1.19415 | 1074 ft | 88 kts | 56° |
| 2026-04-19 13:21 | 53.30619 | -1.18520 | 1101 ft | 97 kts | 52° |
| 2026-04-19 13:21 | 53.30981 | -1.17584 | 1093 ft | 95 kts | 50° |
| 2026-04-19 13:21 | 53.31365 | -1.16689 | 1048 ft | 95 kts | 47° |
| 2026-04-19 13:21 | 53.31827 | -1.15936 | 1012 ft | 89 kts | 17° |
| 2026-04-19 13:22 | 53.32418 | -1.16054 | 925 ft | 88 kts | 328° |
| 2026-04-19 13:22 | 53.32838 | -1.16754 | 900 ft | 83 kts | 310° |
| 2026-04-19 13:22 | 53.33050 | -1.17530 | 915 ft | 73 kts | 270° |
| 2026-04-19 13:22 | 53.32702 | -1.18187 | 806 ft | 87 kts | 211° |
| 2026-04-19 13:23 | 53.32179 | -1.18595 | 530 ft | 75 kts | 220° |
| 2026-04-19 13:23 | 53.31870 | -1.19164 | 283 ft | 57 kts | 249° |
| 2026-04-19 13:23 | 53.31688 | -1.19632 | 235 ft | 37 kts | 229° |
| 2026-04-19 13:23 | 53.31546 | -1.19970 | 262 ft | 47 kts | 234° |
| 2026-04-19 13:24 | 53.31320 | -1.20448 | 377 ft | 48 kts | 238° |
| 2026-04-19 13:24 | 53.31052 | -1.20906 | 485 ft | 65 kts | 233° |
| 2026-04-19 13:24 | 53.30693 | -1.21468 | 661 ft | 80 kts | 214° |
| 2026-04-19 13:24 | 53.30119 | -1.21476 | 857 ft | 87 kts | 152° |
| 2026-04-19 13:25 | 53.29748 | -1.20635 | 920 ft | 101 kts | 97° |
| 2026-04-19 13:25 | 53.29816 | -1.19479 | 1028 ft | 98 kts | 65° |
| 2026-04-19 13:25 | 53.30101 | -1.18443 | 1079 ft | 96 kts | 58° |
| 2026-04-19 13:25 | 53.30417 | -1.17461 | 1132 ft | 100 kts | 54° |
| 2026-04-19 13:26 | 53.30806 | -1.16505 | 1182 ft | 101 kts | 49° |
| 2026-04-19 13:26 | 53.31275 | -1.15703 | 1186 ft | 91 kts | 18° |
| 2026-04-19 13:26 | 53.31858 | -1.15802 | 1227 ft | 85 kts | 332° |
| 2026-04-19 13:26 | 53.32326 | -1.16418 | 1067 ft | 87 kts | 315° |
| 2026-04-19 13:27 | 53.32494 | -1.17314 | 998 ft | 82 kts | 264° |
| 2026-04-19 13:27 | 53.32234 | -1.18161 | 729 ft | 82 kts | 245° |
| 2026-04-19 13:27 | 53.31959 | -1.18914 | 395 ft | 71 kts | 245° |
| 2026-04-19 13:27 | 53.31730 | -1.19527 | 233 ft | 48 kts | 247° |
| 2026-04-19 13:28 | 53.31539 | -1.19977 | 266 ft | 61 kts | 234° |
| 2026-04-19 13:28 | 53.31314 | -1.20603 | 455 ft | 65 kts | 251° |
| 2026-04-19 13:28 | 53.31102 | -1.21281 | 647 ft | 70 kts | 249° |
| 2026-04-19 13:28 | 53.30803 | -1.21991 | 820 ft | 83 kts | 223° |
| 2026-04-19 13:29 | 53.30209 | -1.22099 | 960 ft | 99 kts | 156° |
| 2026-04-19 13:29 | 53.29742 | -1.21194 | 1029 ft | 107 kts | 110° |
| 2026-04-19 13:29 | 53.29725 | -1.19982 | 1074 ft | 105 kts | 63° |
| 2026-04-19 13:29 | 53.30078 | -1.18936 | 1113 ft | 101 kts | 50° |
| 2026-04-19 13:30 | 53.30475 | -1.18029 | 1182 ft | 96 kts | 46° |
| 2026-04-19 13:30 | 53.30893 | -1.17190 | 1307 ft | 94 kts | 43° |
| 2026-04-19 13:30 | 53.31892 | -1.15809 | 1232 ft | 89 kts | 2° |
| 2026-04-19 13:31 | 53.32455 | -1.16147 | 1107 ft | 87 kts | 313° |
| 2026-04-19 13:31 | 53.32576 | -1.17112 | 1050 ft | 89 kts | 261° |
| 2026-04-19 13:31 | 53.32292 | -1.18058 | 695 ft | 83 kts | 244° |
| 2026-04-19 13:31 | 53.32027 | -1.18753 | 428 ft | 63 kts | 243° |
| 2026-04-19 13:32 | 53.31795 | -1.19357 | 250 ft | 58 kts | 247° |
| 2026-04-19 13:32 | 53.31624 | -1.19783 | 246 ft | 37 kts | 235° |
| 2026-04-19 13:32 | 53.31409 | -1.20289 | 353 ft | 61 kts | 243° |